sensor_id;sensor_type;location;lat;lon;timestamp;pressure;altitude;pressure_sealevel;temperature;humidity
57192;BME280;43052;52.588;13.396;2023-02-13T00:01:57;103297.75;;;7.96;80.61
57192;BME280;43052;52.588;13.396;2023-02-13T00:04:23;103288.91;;;7.92;80.59
57192;BME280;43052;52.588;13.396;2023-02-13T00:06:48;103288.81;;;7.91;80.46
57192;BME280;43052;52.588;13.396;2023-02-13T00:09:13;103286.97;;;7.88;80.19
57192;BME280;43052;52.588;13.396;2023-02-13T00:11:40;103289.53;;;7.87;80.18
57192;BME280;43052;52.588;13.396;2023-02-13T00:14:05;103274.56;;;7.82;80.26
57192;BME280;43052;52.588;13.396;2023-02-13T00:16:32;103291.22;;;7.86;80.28
57192;BME280;43052;52.588;13.396;2023-02-13T00:18:58;103284.09;;;7.82;80.10
57192;BME280;43052;52.588;13.396;2023-02-13T00:21:23;103289.38;;;7.83;79.93
57192;BME280;43052;52.588;13.396;2023-02-13T00:23:48;103289.75;;;7.73;79.87
57192;BME280;43052;52.588;13.396;2023-02-13T00:26:15;103292.38;;;7.73;79.94
57192;BME280;43052;52.588;13.396;2023-02-13T00:28:41;103284.53;;;7.73;80.03
57192;BME280;43052;52.588;13.396;2023-02-13T00:31:09;103294.09;;;7.73;79.78
57192;BME280;43052;52.588;13.396;2023-02-13T00:33:35;103285.38;;;7.72;79.78
57192;BME280;43052;52.588;13.396;2023-02-13T00:36:09;103291.47;;;7.73;79.63
57192;BME280;43052;52.588;13.396;2023-02-13T00:38:35;103294.91;;;7.72;79.42
57192;BME280;43052;52.588;13.396;2023-02-13T00:41:01;103292.38;;;7.73;79.29
57192;BME280;43052;52.588;13.396;2023-02-13T00:43:26;103286.41;;;7.76;78.98
57192;BME280;43052;52.588;13.396;2023-02-13T00:45:52;103286.50;;;7.77;79.01
57192;BME280;43052;52.588;13.396;2023-02-13T00:48:17;103282.47;;;7.84;78.73
57192;BME280;43052;52.588;13.396;2023-02-13T00:50:42;103283.50;;;7.88;78.61
57192;BME280;43052;52.588;13.396;2023-02-13T00:53:07;103275.69;;;7.88;78.31
57192;BME280;43052;52.588;13.396;2023-02-13T00:55:33;103279.97;;;7.87;78.48
57192;BME280;43052;52.588;13.396;2023-02-13T00:57:59;103282.53;;;7.86;78.20
57192;BME280;43052;52.588;13.396;2023-02-13T01:00:24;103278.78;;;7.80;77.87
57192;BME280;43052;52.588;13.396;2023-02-13T01:02:50;103280.75;;;7.84;77.75
57192;BME280;43052;52.588;13.396;2023-02-13T01:05:15;103290.50;;;7.89;77.68
57192;BME280;43052;52.588;13.396;2023-02-13T01:07:40;103295.72;;;7.89;77.45
57192;BME280;43052;52.588;13.396;2023-02-13T01:10:06;103290.34;;;7.86;77.34
57192;BME280;43052;52.588;13.396;2023-02-13T01:12:31;103298.69;;;7.78;77.62
57192;BME280;43052;52.588;13.396;2023-02-13T01:14:57;103291.53;;;7.74;77.33
57192;BME280;43052;52.588;13.396;2023-02-13T01:17:22;103290.44;;;7.69;77.55
57192;BME280;43052;52.588;13.396;2023-02-13T01:19:47;103293.94;;;7.69;77.35
57192;BME280;43052;52.588;13.396;2023-02-13T01:22:12;103291.00;;;7.62;77.39
57192;BME280;43052;52.588;13.396;2023-02-13T01:24:38;103291.59;;;7.56;77.27
57192;BME280;43052;52.588;13.396;2023-02-13T01:27:03;103287.31;;;7.58;77.28
57192;BME280;43052;52.588;13.396;2023-02-13T01:29:29;103296.03;;;7.59;77.04
57192;BME280;43052;52.588;13.396;2023-02-13T01:31:54;103278.19;;;7.48;77.07
57192;BME280;43052;52.588;13.396;2023-02-13T01:34:19;103287.84;;;7.51;77.23
57192;BME280;43052;52.588;13.396;2023-02-13T01:36:44;103285.19;;;7.49;77.14
57192;BME280;43052;52.588;13.396;2023-02-13T01:39:11;103288.81;;;7.53;77.14
57192;BME280;43052;52.588;13.396;2023-02-13T01:41:37;103288.16;;;7.57;77.09
57192;BME280;43052;52.588;13.396;2023-02-13T01:44:03;103283.03;;;7.59;76.55
57192;BME280;43052;52.588;13.396;2023-02-13T01:46:35;103277.53;;;7.52;76.72
57192;BME280;43052;52.588;13.396;2023-02-13T01:49:08;103277.31;;;7.48;76.80
57192;BME280;43052;52.588;13.396;2023-02-13T01:51:35;103279.69;;;7.43;76.74
57192;BME280;43052;52.588;13.396;2023-02-13T01:54:04;103285.72;;;7.42;76.51
57192;BME280;43052;52.588;13.396;2023-02-13T01:56:38;103284.75;;;7.40;76.70
57192;BME280;43052;52.588;13.396;2023-02-13T01:59:10;103271.34;;;7.32;76.94
57192;BME280;43052;52.588;13.396;2023-02-13T02:01:37;103280.28;;;7.37;76.92
57192;BME280;43052;52.588;13.396;2023-02-13T02:04:12;103282.97;;;7.39;76.99
57192;BME280;43052;52.588;13.396;2023-02-13T02:06:44;103266.91;;;7.30;76.51
57192;BME280;43052;52.588;13.396;2023-02-13T02:09:14;103267.81;;;7.30;76.59
57192;BME280;43052;52.588;13.396;2023-02-13T02:12:03;103283.44;;;7.30;76.62
57192;BME280;43052;52.588;13.396;2023-02-13T02:14:30;103282.66;;;7.33;76.31
57192;BME280;43052;52.588;13.396;2023-02-13T02:16:56;103290.53;;;7.34;76.62
57192;BME280;43052;52.588;13.396;2023-02-13T02:19:42;103281.75;;;7.32;76.54
57192;BME280;43052;52.588;13.396;2023-02-13T02:25:33;103281.47;;;7.26;76.38
57192;BME280;43052;52.588;13.396;2023-02-13T02:31:47;103291.88;;;7.26;76.59
57192;BME280;43052;52.588;13.396;2023-02-13T02:42:44;103292.63;;;7.24;76.47
57192;BME280;43052;52.588;13.396;2023-02-13T02:45:20;103293.44;;;7.22;76.72
57192;BME280;43052;52.588;13.396;2023-02-13T02:48:12;103287.22;;;7.19;76.66
57192;BME280;43052;52.588;13.396;2023-02-13T02:51:22;103285.25;;;7.15;76.41
57192;BME280;43052;52.588;13.396;2023-02-13T02:56:53;103284.31;;;7.13;76.54
57192;BME280;43052;52.588;13.396;2023-02-13T02:59:22;103299.19;;;7.15;76.80
57192;BME280;43052;52.588;13.396;2023-02-13T03:02:09;103293.75;;;7.11;76.85
57192;BME280;43052;52.588;13.396;2023-02-13T03:04:55;103292.19;;;7.14;76.93
57192;BME280;43052;52.588;13.396;2023-02-13T03:07:42;103297.16;;;7.10;76.61
57192;BME280;43052;52.588;13.396;2023-02-13T03:10:11;103296.41;;;7.12;76.95
57192;BME280;43052;52.588;13.396;2023-02-13T03:13:00;103297.38;;;7.14;76.70
57192;BME280;43052;52.588;13.396;2023-02-13T03:15:46;103303.69;;;7.19;76.72
57192;BME280;43052;52.588;13.396;2023-02-13T03:18:38;103294.84;;;7.16;76.44
57192;BME280;43052;52.588;13.396;2023-02-13T03:30:53;103291.81;;;7.25;76.01
57192;BME280;43052;52.588;13.396;2023-02-13T03:33:37;103284.16;;;7.28;75.92
57192;BME280;43052;52.588;13.396;2023-02-13T03:36:32;103288.75;;;7.33;75.57
57192;BME280;43052;52.588;13.396;2023-02-13T03:39:18;103288.91;;;7.36;75.47
57192;BME280;43052;52.588;13.396;2023-02-13T03:41:50;103285.34;;;7.34;75.44
57192;BME280;43052;52.588;13.396;2023-02-13T03:44:38;103282.06;;;7.20;75.50
57192;BME280;43052;52.588;13.396;2023-02-13T03:47:08;103288.78;;;7.15;75.55
57192;BME280;43052;52.588;13.396;2023-02-13T03:49:38;103289.34;;;7.10;75.79
57192;BME280;43052;52.588;13.396;2023-02-13T03:52:45;103286.81;;;7.11;75.80
57192;BME280;43052;52.588;13.396;2023-02-13T03:55:12;103281.09;;;7.18;75.65
57192;BME280;43052;52.588;13.396;2023-02-13T03:58:02;103285.41;;;7.18;75.55
57192;BME280;43052;52.588;13.396;2023-02-13T04:00:50;103280.28;;;7.19;75.45
57192;BME280;43052;52.588;13.396;2023-02-13T04:03:23;103281.25;;;7.21;75.27
57192;BME280;43052;52.588;13.396;2023-02-13T04:05:57;103274.34;;;7.22;75.44
57192;BME280;43052;52.588;13.396;2023-02-13T04:08:25;103270.78;;;7.20;75.27
57192;BME280;43052;52.588;13.396;2023-02-13T04:10:58;103272.19;;;7.13;75.69
57192;BME280;43052;52.588;13.396;2023-02-13T04:13:31;103273.69;;;7.08;75.69
57192;BME280;43052;52.588;13.396;2023-02-13T04:16:17;103270.91;;;7.05;76.11
57192;BME280;43052;52.588;13.396;2023-02-13T04:18:46;103273.75;;;7.10;75.76
57192;BME280;43052;52.588;13.396;2023-02-13T04:21:13;103257.16;;;7.08;75.89
57192;BME280;43052;52.588;13.396;2023-02-13T04:23:38;103255.69;;;7.13;75.41
57192;BME280;43052;52.588;13.396;2023-02-13T04:26:07;103265.34;;;7.15;75.71
57192;BME280;43052;52.588;13.396;2023-02-13T04:28:38;103254.94;;;7.15;75.42
57192;BME280;43052;52.588;13.396;2023-02-13T04:31:03;103272.47;;;7.19;75.62
57192;BME280;43052;52.588;13.396;2023-02-13T04:33:28;103277.69;;;7.19;75.34
57192;BME280;43052;52.588;13.396;2023-02-13T04:35:54;103282.97;;;7.21;75.59
57192;BME280;43052;52.588;13.396;2023-02-13T04:38:20;103271.94;;;7.09;75.66
57192;BME280;43052;52.588;13.396;2023-02-13T04:40:45;103264.09;;;7.07;75.85
57192;BME280;43052;52.588;13.396;2023-02-13T04:43:10;103254.31;;;7.03;76.01
57192;BME280;43052;52.588;13.396;2023-02-13T04:45:35;103262.00;;;7.00;76.11
57192;BME280;43052;52.588;13.396;2023-02-13T04:48:01;103259.47;;;7.01;75.82
57192;BME280;43052;52.588;13.396;2023-02-13T04:50:26;103263.28;;;7.08;75.73
57192;BME280;43052;52.588;13.396;2023-02-13T04:52:55;103266.75;;;7.09;75.67
57192;BME280;43052;52.588;13.396;2023-02-13T04:55:22;103254.19;;;7.00;75.76
57192;BME280;43052;52.588;13.396;2023-02-13T04:57:51;103247.28;;;7.00;75.79
57192;BME280;43052;52.588;13.396;2023-02-13T05:00:18;103261.47;;;7.07;75.82
57192;BME280;43052;52.588;13.396;2023-02-13T05:02:43;103259.84;;;7.09;75.72
57192;BME280;43052;52.588;13.396;2023-02-13T05:05:08;103251.19;;;7.10;75.68
57192;BME280;43052;52.588;13.396;2023-02-13T05:07:33;103253.81;;;7.10;75.71
57192;BME280;43052;52.588;13.396;2023-02-13T05:09:59;103262.88;;;7.18;75.37
57192;BME280;43052;52.588;13.396;2023-02-13T05:12:24;103257.31;;;7.11;75.59
57192;BME280;43052;52.588;13.396;2023-02-13T05:14:49;103263.34;;;7.10;75.65
57192;BME280;43052;52.588;13.396;2023-02-13T05:17:14;103260.78;;;7.11;75.56
57192;BME280;43052;52.588;13.396;2023-02-13T05:19:40;103262.75;;;7.15;75.46
57192;BME280;43052;52.588;13.396;2023-02-13T05:22:05;103267.25;;;7.19;75.16
57192;BME280;43052;52.588;13.396;2023-02-13T05:24:49;103264.53;;;7.16;75.05
57192;BME280;43052;52.588;13.396;2023-02-13T05:27:14;103268.94;;;7.17;74.95
57192;BME280;43052;52.588;13.396;2023-02-13T05:29:39;103267.13;;;7.16;74.95
57192;BME280;43052;52.588;13.396;2023-02-13T05:32:04;103257.59;;;7.17;75.02
57192;BME280;43052;52.588;13.396;2023-02-13T05:34:30;103259.16;;;7.13;75.10
57192;BME280;43052;52.588;13.396;2023-02-13T05:36:55;103274.03;;;7.16;75.19
57192;BME280;43052;52.588;13.396;2023-02-13T05:39:20;103263.34;;;7.10;75.16
57192;BME280;43052;52.588;13.396;2023-02-13T05:41:46;103266.75;;;7.09;75.32
57192;BME280;43052;52.588;13.396;2023-02-13T05:44:12;103271.72;;;7.04;75.16
57192;BME280;43052;52.588;13.396;2023-02-13T05:46:38;103275.38;;;7.08;75.20
57192;BME280;43052;52.588;13.396;2023-02-13T05:49:04;103267.50;;;7.06;74.96
57192;BME280;43052;52.588;13.396;2023-02-13T05:51:30;103277.16;;;7.09;75.08
57192;BME280;43052;52.588;13.396;2023-02-13T05:53:55;103277.75;;;7.03;74.93
57192;BME280;43052;52.588;13.396;2023-02-13T05:56:21;103267.03;;;6.97;75.10
57192;BME280;43052;52.588;13.396;2023-02-13T05:58:46;103290.09;;;7.07;74.89
57192;BME280;43052;52.588;13.396;2023-02-13T06:01:12;103282.53;;;7.12;74.64
57192;BME280;43052;52.588;13.396;2023-02-13T06:03:37;103289.81;;;7.19;74.34
57192;BME280;43052;52.588;13.396;2023-02-13T06:06:04;103288.59;;;7.12;74.67
57192;BME280;43052;52.588;13.396;2023-02-13T06:08:30;103292.34;;;7.17;74.42
57192;BME280;43052;52.588;13.396;2023-02-13T06:10:55;103287.28;;;7.20;74.37
57192;BME280;43052;52.588;13.396;2023-02-13T06:13:20;103285.94;;;7.11;74.43
57192;BME280;43052;52.588;13.396;2023-02-13T06:15:46;103301.56;;;7.11;74.46
57192;BME280;43052;52.588;13.396;2023-02-13T06:18:11;103306.59;;;7.08;74.46
57192;BME280;43052;52.588;13.396;2023-02-13T06:20:37;103291.56;;;7.02;74.67
57192;BME280;43052;52.588;13.396;2023-02-13T06:23:02;103304.81;;;7.06;74.52
57192;BME280;43052;52.588;13.396;2023-02-13T06:25:28;103298.19;;;7.13;74.48
57192;BME280;43052;52.588;13.396;2023-02-13T06:27:53;103301.84;;;7.17;74.40
57192;BME280;43052;52.588;13.396;2023-02-13T06:30:19;103303.69;;;7.19;74.47
57192;BME280;43052;52.588;13.396;2023-02-13T06:32:45;103298.72;;;7.24;74.43
57192;BME280;43052;52.588;13.396;2023-02-13T06:35:11;103300.16;;;7.17;74.23
57192;BME280;43052;52.588;13.396;2023-02-13T06:37:37;103309.72;;;7.18;74.00
57192;BME280;43052;52.588;13.396;2023-02-13T06:40:04;103303.94;;;7.24;73.96
57192;BME280;43052;52.588;13.396;2023-02-13T06:42:30;103301.31;;;7.24;73.82
57192;BME280;43052;52.588;13.396;2023-02-13T06:44:55;103309.22;;;7.26;73.88
57192;BME280;43052;52.588;13.396;2023-02-13T06:47:20;103304.50;;;7.18;74.01
57192;BME280;43052;52.588;13.396;2023-02-13T06:49:45;103312.31;;;7.18;74.00
57192;BME280;43052;52.588;13.396;2023-02-13T06:52:11;103313.28;;;7.20;74.14
57192;BME280;43052;52.588;13.396;2023-02-13T06:54:36;103318.72;;;7.25;74.11
57192;BME280;43052;52.588;13.396;2023-02-13T06:57:01;103318.97;;;7.30;73.71
57192;BME280;43052;52.588;13.396;2023-02-13T06:59:27;103319.13;;;7.33;73.85
57192;BME280;43052;52.588;13.396;2023-02-13T07:01:52;103318.13;;;7.31;73.51
57192;BME280;43052;52.588;13.396;2023-02-13T07:04:17;103328.63;;;7.32;73.82
57192;BME280;43052;52.588;13.396;2023-02-13T07:06:42;103319.72;;;7.27;73.71
57192;BME280;43052;52.588;13.396;2023-02-13T07:09:08;103331.97;;;7.30;73.81
57192;BME280;43052;52.588;13.396;2023-02-13T07:11:33;103317.09;;;7.27;73.99
57192;BME280;43052;52.588;13.396;2023-02-13T07:13:58;103330.41;;;7.33;73.79
57192;BME280;43052;52.588;13.396;2023-02-13T07:16:23;103328.13;;;7.40;73.66
57192;BME280;43052;52.588;13.396;2023-02-13T07:18:49;103327.16;;;7.37;73.56
57192;BME280;43052;52.588;13.396;2023-02-13T07:21:14;103321.78;;;7.34;73.45
57192;BME280;43052;52.588;13.396;2023-02-13T07:23:39;103331.53;;;7.39;73.59
57192;BME280;43052;52.588;13.396;2023-02-13T07:26:05;103327.16;;;7.37;73.86
57192;BME280;43052;52.588;13.396;2023-02-13T07:28:30;103338.53;;;7.40;73.46
57192;BME280;43052;52.588;13.396;2023-02-13T08:03:33;103340.16;;;7.74;72.89
57192;BME280;43052;52.588;13.396;2023-02-13T08:12:27;103344.34;;;7.90;72.43
57192;BME280;43052;52.588;13.396;2023-02-13T08:14:52;103351.28;;;7.89;72.54
57192;BME280;43052;52.588;13.396;2023-02-13T08:17:18;103353.69;;;7.84;72.48
57192;BME280;43052;52.588;13.396;2023-02-13T08:19:43;103342.28;;;7.82;72.57
57192;BME280;43052;52.588;13.396;2023-02-13T08:22:08;103343.31;;;7.86;72.62
57192;BME280;43052;52.588;13.396;2023-02-13T08:24:33;103348.63;;;7.88;72.82
57192;BME280;43052;52.588;13.396;2023-02-13T08:26:59;103349.72;;;7.93;72.73
57192;BME280;43052;52.588;13.396;2023-02-13T08:29:24;103334.91;;;7.92;72.61
57192;BME280;43052;52.588;13.396;2023-02-13T08:31:49;103339.56;;;7.99;72.48
57192;BME280;43052;52.588;13.396;2023-02-13T08:34:15;103335.28;;;7.99;72.02
57192;BME280;43052;52.588;13.396;2023-02-13T08:36:40;103345.53;;;7.96;72.28
57192;BME280;43052;52.588;13.396;2023-02-13T08:39:05;103334.38;;;7.99;72.24
57192;BME280;43052;52.588;13.396;2023-02-13T08:41:31;103332.88;;;8.04;72.17
57192;BME280;43052;52.588;13.396;2023-02-13T08:43:59;103330.56;;;8.10;72.15
57192;BME280;43052;52.588;13.396;2023-02-13T08:46:24;103327.88;;;8.09;72.13
57192;BME280;43052;52.588;13.396;2023-02-13T08:48:50;103339.75;;;8.22;71.85
57192;BME280;43052;52.588;13.396;2023-02-13T08:51:15;103348.66;;;8.27;71.88
57192;BME280;43052;52.588;13.396;2023-02-13T08:53:40;103328.56;;;8.24;71.81
57192;BME280;43052;52.588;13.396;2023-02-13T08:56:06;103334.25;;;8.35;71.72
57192;BME280;43052;52.588;13.396;2023-02-13T08:58:31;103329.25;;;8.40;71.53
57192;BME280;43052;52.588;13.396;2023-02-13T09:00:57;103349.28;;;8.59;71.26
57192;BME280;43052;52.588;13.396;2023-02-13T09:03:22;103344.25;;;8.64;71.13
57192;BME280;43052;52.588;13.396;2023-02-13T09:05:48;103344.06;;;8.59;70.90
57192;BME280;43052;52.588;13.396;2023-02-13T09:08:13;103348.09;;;8.52;71.12
57192;BME280;43052;52.588;13.396;2023-02-13T09:10:42;103356.03;;;8.55;71.18
57192;BME280;43052;52.588;13.396;2023-02-13T09:13:10;103344.22;;;8.44;71.01
57192;BME280;43052;52.588;13.396;2023-02-13T09:15:39;103342.22;;;8.38;71.03
57192;BME280;43052;52.588;13.396;2023-02-13T09:18:05;103352.09;;;8.45;71.42
57192;BME280;43052;52.588;13.396;2023-02-13T09:20:31;103354.19;;;8.53;71.31
57192;BME280;43052;52.588;13.396;2023-02-13T09:22:56;103349.31;;;8.60;70.96
57192;BME280;43052;52.588;13.396;2023-02-13T09:25:21;103357.16;;;8.60;71.01
57192;BME280;43052;52.588;13.396;2023-02-13T09:27:47;103357.63;;;8.52;71.27
57192;BME280;43052;52.588;13.396;2023-02-13T09:30:12;103355.41;;;8.41;71.44
57192;BME280;43052;52.588;13.396;2023-02-13T09:32:46;103351.38;;;8.48;71.45
57192;BME280;43052;52.588;13.396;2023-02-13T09:35:11;103358.19;;;8.64;71.59
57192;BME280;43052;52.588;13.396;2023-02-13T09:37:38;103366.97;;;8.66;71.67
57192;BME280;43052;52.588;13.396;2023-02-13T09:40:05;103361.25;;;8.75;71.69
57192;BME280;43052;52.588;13.396;2023-02-13T09:42:32;103350.91;;;8.76;71.68
57192;BME280;43052;52.588;13.396;2023-02-13T09:45:04;103369.00;;;8.93;71.57
57192;BME280;43052;52.588;13.396;2023-02-13T09:47:33;103370.31;;;9.04;71.47
57192;BME280;43052;52.588;13.396;2023-02-13T09:50:02;103365.25;;;9.07;71.46
57192;BME280;43052;52.588;13.396;2023-02-13T09:52:32;103364.09;;;9.01;71.12
57192;BME280;43052;52.588;13.396;2023-02-13T09:55:00;103363.44;;;8.85;71.41
57192;BME280;43052;52.588;13.396;2023-02-13T09:57:33;103361.59;;;8.83;71.73
57192;BME280;43052;52.588;13.396;2023-02-13T10:00:05;103352.53;;;8.74;71.88
57192;BME280;43052;52.588;13.396;2023-02-13T10:02:54;103356.59;;;8.68;71.90
57192;BME280;43052;52.588;13.396;2023-02-13T10:06:12;103357.41;;;8.67;72.28
57192;BME280;43052;52.588;13.396;2023-02-13T10:08:52;103364.97;;;8.60;72.28
57192;BME280;43052;52.588;13.396;2023-02-13T10:11:35;103363.88;;;8.55;72.57
57192;BME280;43052;52.588;13.396;2023-02-13T10:14:17;103367.72;;;8.64;72.69
57192;BME280;43052;52.588;13.396;2023-02-13T10:16:50;103364.06;;;8.60;72.74
57192;BME280;43052;52.588;13.396;2023-02-13T10:19:40;103366.47;;;8.55;73.27
57192;BME280;43052;52.588;13.396;2023-02-13T10:22:16;103356.03;;;8.55;73.20
57192;BME280;43052;52.588;13.396;2023-02-13T10:24:47;103358.03;;;8.61;73.50
57192;BME280;43052;52.588;13.396;2023-02-13T10:27:30;103358.44;;;8.70;73.15
57192;BME280;43052;52.588;13.396;2023-02-13T10:30:07;103357.19;;;8.82;73.32
57192;BME280;43052;52.588;13.396;2023-02-13T10:32:49;103358.28;;;8.87;73.25
57192;BME280;43052;52.588;13.396;2023-02-13T10:35:21;103359.78;;;9.01;73.37
57192;BME280;43052;52.588;13.396;2023-02-13T10:37:50;103357.47;;;9.09;73.13
57192;BME280;43052;52.588;13.396;2023-02-13T10:40:18;103354.16;;;9.13;72.99
57192;BME280;43052;52.588;13.396;2023-02-13T10:42:45;103358.81;;;9.20;72.96
57192;BME280;43052;52.588;13.396;2023-02-13T10:45:21;103358.13;;;9.24;72.50
57192;BME280;43052;52.588;13.396;2023-02-13T10:48:08;103356.84;;;9.36;72.35
57192;BME280;43052;52.588;13.396;2023-02-13T10:50:50;103354.78;;;9.50;72.48
57192;BME280;43052;52.588;13.396;2023-02-13T10:55:59;103346.50;;;9.60;72.01
57192;BME280;43052;52.588;13.396;2023-02-13T11:01:30;103337.91;;;9.41;71.80
57192;BME280;43052;52.588;13.396;2023-02-13T11:04:09;103333.22;;;9.33;71.47
57192;BME280;43052;52.588;13.396;2023-02-13T11:06:38;103340.97;;;9.31;71.53
57192;BME280;43052;52.588;13.396;2023-02-13T11:09:06;103336.72;;;9.33;71.47
57192;BME280;43052;52.588;13.396;2023-02-13T11:11:33;103333.13;;;9.31;71.36
57192;BME280;43052;52.588;13.396;2023-02-13T11:14:09;103332.84;;;9.23;71.19
57192;BME280;43052;52.588;13.396;2023-02-13T11:16:52;103335.19;;;9.17;71.10
57192;BME280;43052;52.588;13.396;2023-02-13T11:19:31;103334.50;;;9.21;70.87
57192;BME280;43052;52.588;13.396;2023-02-13T11:22:12;103332.03;;;9.24;70.69
57192;BME280;43052;52.588;13.396;2023-02-13T11:24:40;103322.41;;;9.23;70.44
57192;BME280;43052;52.588;13.396;2023-02-13T11:27:09;103320.44;;;9.18;70.51
57192;BME280;43052;52.588;13.396;2023-02-13T11:29:52;103318.63;;;9.17;70.75
57192;BME280;43052;52.588;13.396;2023-02-13T11:32:30;103315.06;;;9.15;70.38
57192;BME280;43052;52.588;13.396;2023-02-13T11:34:56;103316.84;;;9.16;70.45
57192;BME280;43052;52.588;13.396;2023-02-13T11:37:30;103304.53;;;9.12;70.14
57192;BME280;43052;52.588;13.396;2023-02-13T11:39:59;103318.63;;;9.17;70.28
57192;BME280;43052;52.588;13.396;2023-02-13T11:42:29;103312.22;;;9.08;70.02
57192;BME280;43052;52.588;13.396;2023-02-13T11:45:14;103312.66;;;9.19;70.01
57192;BME280;43052;52.588;13.396;2023-02-13T11:47:44;103309.00;;;9.37;69.87
57192;BME280;43052;52.588;13.396;2023-02-13T11:53:00;103304.50;;;9.55;68.99
57192;BME280;43052;52.588;13.396;2023-02-13T11:55:37;103299.69;;;9.66;69.04
57192;BME280;43052;52.588;13.396;2023-02-13T11:58:22;103290.38;;;9.73;68.83
57192;BME280;43052;52.588;13.396;2023-02-13T12:00:47;103289.84;;;9.82;68.63
57192;BME280;43052;52.588;13.396;2023-02-13T12:08:36;103285.44;;;9.58;68.36
57192;BME280;43052;52.588;13.396;2023-02-13T12:11:18;103277.56;;;9.56;68.39
57192;BME280;43052;52.588;13.396;2023-02-13T12:13:45;103281.66;;;9.72;68.37
57192;BME280;43052;52.588;13.396;2023-02-13T12:16:13;103296.97;;;9.86;68.16
57192;BME280;43052;52.588;13.396;2023-02-13T12:18:43;103291.72;;;9.86;67.84
57192;BME280;43052;52.588;13.396;2023-02-13T12:26:40;103304.69;;;9.60;67.86
57192;BME280;43052;52.588;13.396;2023-02-13T12:29:27;103291.03;;;9.45;68.14
57192;BME280;43052;52.588;13.396;2023-02-13T12:35:20;103304.19;;;9.48;68.12
57192;BME280;43052;52.588;13.396;2023-02-13T12:38:15;103299.09;;;9.51;68.19
57192;BME280;43052;52.588;13.396;2023-02-13T12:46:45;103305.50;;;9.36;68.12
57192;BME280;43052;52.588;13.396;2023-02-13T12:49:29;103302.06;;;9.37;68.00
57192;BME280;43052;52.588;13.396;2023-02-13T12:52:21;103303.00;;;9.39;67.81
57192;BME280;43052;52.588;13.396;2023-02-13T12:55:14;103300.97;;;9.32;67.54
57192;BME280;43052;52.588;13.396;2023-02-13T12:57:54;103289.22;;;9.21;67.37
57192;BME280;43052;52.588;13.396;2023-02-13T13:00:43;103292.47;;;9.15;66.87
57192;BME280;43052;52.588;13.396;2023-02-13T13:03:30;103295.59;;;9.06;66.69
57192;BME280;43052;52.588;13.396;2023-02-13T13:08:46;103292.59;;;8.97;66.52
57192;BME280;43052;52.588;13.396;2023-02-13T13:11:48;103288.28;;;8.98;66.71
57192;BME280;43052;52.588;13.396;2023-02-13T13:17:23;103292.09;;;9.06;66.09
57192;BME280;43052;52.588;13.396;2023-02-13T13:20:20;103284.75;;;8.97;65.53
57192;BME280;43052;52.588;13.396;2023-02-13T13:23:05;103283.06;;;8.98;65.59
57192;BME280;43052;52.588;13.396;2023-02-13T13:28:10;103276.75;;;8.92;65.44
57192;BME280;43052;52.588;13.396;2023-02-13T13:30:36;103281.00;;;8.90;65.65
57192;BME280;43052;52.588;13.396;2023-02-13T13:33:10;103280.19;;;8.91;65.45
57192;BME280;43052;52.588;13.396;2023-02-13T13:36:24;103289.97;;;8.97;65.51
57192;BME280;43052;52.588;13.396;2023-02-13T13:38:43;103295.34;;;9.00;65.41
57192;BME280;43052;52.588;13.396;2023-02-13T13:41:14;103291.53;;;8.92;65.20
57192;BME280;43052;52.588;13.396;2023-02-13T13:44:00;103293.94;;;8.87;65.23
57192;BME280;43052;52.588;13.396;2023-02-13T13:49:20;103287.75;;;8.85;65.42
57192;BME280;43052;52.588;13.396;2023-02-13T13:51:48;103294.50;;;8.80;65.32
57192;BME280;43052;52.588;13.396;2023-02-13T13:59:18;103276.53;;;8.67;65.40
57192;BME280;43052;52.588;13.396;2023-02-13T14:01:43;103275.78;;;8.69;65.45
57192;BME280;43052;52.588;13.396;2023-02-13T14:11:53;103266.19;;;8.68;65.37
57192;BME280;43052;52.588;13.396;2023-02-13T14:14:43;103273.09;;;8.68;64.90
57192;BME280;43052;52.588;13.396;2023-02-13T14:17:12;103266.81;;;8.62;65.23
57192;BME280;43052;52.588;13.396;2023-02-13T14:19:39;103264.50;;;8.49;65.10
57192;BME280;43052;52.588;13.396;2023-02-13T14:24:53;103252.00;;;8.42;65.29
57192;BME280;43052;52.588;13.396;2023-02-13T14:27:33;103247.53;;;8.39;65.46
57192;BME280;43052;52.588;13.396;2023-02-13T14:30:01;103243.41;;;8.44;65.44
57192;BME280;43052;52.588;13.396;2023-02-13T14:32:32;103234.69;;;8.44;65.25
57192;BME280;43052;52.588;13.396;2023-02-13T14:35:22;103235.03;;;8.52;65.20
57192;BME280;43052;52.588;13.396;2023-02-13T14:37:49;103240.97;;;8.48;65.22
57192;BME280;43052;52.588;13.396;2023-02-13T14:42:43;103251.22;;;8.44;64.98
57192;BME280;43052;52.588;13.396;2023-02-13T14:45:14;103232.00;;;8.42;64.96
57192;BME280;43052;52.588;13.396;2023-02-13T14:47:46;103230.88;;;8.36;64.95
57192;BME280;43052;52.588;13.396;2023-02-13T14:50:39;103235.28;;;8.37;65.04
57192;BME280;43052;52.588;13.396;2023-02-13T14:53:15;103234.34;;;8.36;64.94
57192;BME280;43052;52.588;13.396;2023-02-13T14:55:44;103233.28;;;8.31;65.11
57192;BME280;43052;52.588;13.396;2023-02-13T14:58:15;103234.94;;;8.29;65.05
57192;BME280;43052;52.588;13.396;2023-02-13T15:01:01;103232.38;;;8.30;65.29
57192;BME280;43052;52.588;13.396;2023-02-13T15:03:39;103240.47;;;8.37;65.21
57192;BME280;43052;52.588;13.396;2023-02-13T15:06:34;103237.88;;;8.37;65.03
57192;BME280;43052;52.588;13.396;2023-02-13T15:09:04;103234.94;;;8.29;65.27
57192;BME280;43052;52.588;13.396;2023-02-13T15:11:36;103238.56;;;8.32;65.27
57192;BME280;43052;52.588;13.396;2023-02-13T15:14:22;103222.72;;;8.28;65.29
57192;BME280;43052;52.588;13.396;2023-02-13T15:17:06;103212.47;;;8.32;65.22